Time;durP1;ratioP1;P1;durP2;ratioP2;P2;SDS_P1;SDS_P2;PMS_P1;PMS_P2;Temp;Humidity;BMP_temperature;BMP_pressure;BME280_temperature;BME280_humidity;BME280_pressure;Samples;Min_cycle;Max_cycle;Signal;HPM_P1;HPM_P2
2020/12/20 00:00:28;;;;;;;4.93;4.47;;;11.60;99.90;;;;;;5047897;28;20177;-73
2020/12/20 00:02:55;;;;;;;5.07;4.57;;;11.60;99.90;;;;;;5052992;28;20178;-73
2020/12/20 00:05:23;;;;;;;8.00;4.80;;;11.60;99.90;;;;;;5044094;28;20228;-72
2020/12/20 00:07:49;;;;;;;5.90;5.30;;;11.60;99.90;;;;;;5036453;28;20425;-73
2020/12/20 00:10:16;;;;;;;6.23;4.93;;;11.60;99.90;;;;;;5052655;28;20488;-73
2020/12/20 00:12:42;;;;;;;5.87;5.37;;;11.60;99.90;;;;;;5045765;28;20752;-73
2020/12/20 00:15:08;;;;;;;5.43;4.93;;;11.60;99.90;;;;;;5035872;28;20526;-74
2020/12/20 00:17:34;;;;;;;8.00;5.80;;;11.60;99.90;;;;;;5052486;28;20895;-73
2020/12/20 00:20:00;;;;;;;7.47;5.23;;;11.60;99.90;;;;;;5051633;28;20439;-72
2020/12/20 00:22:26;;;;;;;6.90;4.73;;;11.50;99.90;;;;;;5044422;28;20428;-71
2020/12/20 00:24:52;;;;;;;8.40;5.23;;;11.50;99.90;;;;;;5035859;28;20413;-73
2020/12/20 00:27:17;;;;;;;4.73;4.23;;;11.50;99.90;;;;;;5051559;28;20181;-73
2020/12/20 00:29:43;;;;;;;7.43;5.60;;;11.50;99.90;;;;;;5045048;28;20185;-73
2020/12/20 00:32:11;;;;;;;4.97;4.57;;;11.60;99.90;;;;;;5033024;28;20270;-73
2020/12/20 00:34:37;;;;;;;5.30;4.80;;;11.50;99.90;;;;;;5038418;28;20645;-73
2020/12/20 00:37:03;;;;;;;5.00;4.57;;;11.50;99.90;;;;;;5035815;28;20461;-72
2020/12/20 00:39:29;;;;;;;4.90;4.40;;;11.50;99.90;;;;;;5047867;28;20418;-72
2020/12/20 00:42:01;;;;;;;5.30;4.80;;;11.40;99.90;;;;;;5047912;28;20783;-72
2020/12/20 00:44:28;;;;;;;5.23;4.77;;;11.40;99.90;;;;;;5040628;28;20198;-73
2020/12/20 00:46:58;;;;;;;5.60;5.10;;;11.50;99.90;;;;;;5032622;28;20847;-73
2020/12/20 00:49:28;;;;;;;5.53;4.60;;;11.40;99.90;;;;;;5043529;28;20462;-73
2020/12/20 00:51:58;;;;;;;5.40;4.90;;;11.40;99.90;;;;;;5052147;28;20424;-72
2020/12/20 00:54:25;;;;;;;6.90;6.30;;;11.40;99.90;;;;;;5034587;28;20444;-73
2020/12/20 00:56:51;;;;;;;5.30;4.73;;;11.40;99.90;;;;;;5051737;28;20559;-73
2020/12/20 00:59:17;;;;;;;8.90;5.47;;;11.30;99.90;;;;;;5051206;28;20432;-72
2020/12/20 01:01:43;;;;;;;6.70;5.40;;;11.30;99.90;;;;;;5052418;28;20227;-72
2020/12/20 01:04:08;;;;;;;5.80;5.30;;;11.30;99.90;;;;;;5055016;28;20191;-72
2020/12/20 01:06:34;;;;;;;5.83;5.30;;;11.30;99.90;;;;;;5054710;28;20452;-72
2020/12/20 01:09:02;;;;;;;5.60;4.23;;;11.30;99.90;;;;;;5048010;28;20178;-72
2020/12/20 01:11:28;;;;;;;5.20;4.70;;;11.30;99.90;;;;;;5051481;28;20606;-72
2020/12/20 01:13:54;;;;;;;8.13;5.50;;;11.30;99.90;;;;;;5041296;28;20433;-72
2020/12/20 01:16:26;;;;;;;5.50;4.93;;;11.30;99.90;;;;;;5045870;28;20215;-72
2020/12/20 01:18:55;;;;;;;5.23;4.80;;;11.30;99.90;;;;;;5041523;28;20421;-72
2020/12/20 01:21:21;;;;;;;6.50;5.90;;;11.30;99.90;;;;;;5054833;28;20421;-72
2020/12/20 01:23:47;;;;;;;5.43;4.93;;;11.30;99.90;;;;;;5042031;28;20471;-72
2020/12/20 01:26:13;;;;;;;8.27;6.40;;;11.30;99.90;;;;;;5043631;28;20194;-72
2020/12/20 01:28:39;;;;;;;5.23;4.77;;;11.30;99.90;;;;;;5039125;28;20425;-72
2020/12/20 01:31:06;;;;;;;8.23;5.20;;;11.30;99.90;;;;;;5039890;28;20422;-72
2020/12/20 01:33:35;;;;;;;5.50;4.77;;;11.20;99.90;;;;;;5045863;28;20296;-72
2020/12/20 01:36:09;;;;;;;6.57;5.97;;;11.20;99.90;;;;;;5039289;28;20461;-72
2020/12/20 01:38:36;;;;;;;6.17;5.60;;;11.20;99.90;;;;;;5051184;28;20420;-72
2020/12/20 01:41:02;;;;;;;6.10;5.50;;;11.20;99.90;;;;;;5041608;28;20424;-72
2020/12/20 01:43:43;;;;;;;9.73;5.97;;;11.20;99.90;;;;;;5053412;28;20919;-72
2020/12/20 01:46:10;;;;;;;7.30;5.63;;;11.10;99.90;;;;;;5039136;28;20578;-73
2020/12/20 01:48:37;;;;;;;8.00;5.97;;;11.10;99.90;;;;;;5037247;28;20851;-73
2020/12/20 01:51:02;;;;;;;6.00;5.40;;;11.10;99.90;;;;;;5046449;28;20424;-72
2020/12/20 01:53:28;;;;;;;6.77;6.10;;;11.10;99.90;;;;;;5036501;28;20924;-72
2020/12/20 01:55:59;;;;;;;6.20;5.70;;;11.10;99.90;;;;;;5034748;28;20207;-73
2020/12/20 01:58:26;;;;;;;9.33;6.40;;;11.00;99.90;;;;;;5046410;28;20177;-73
2020/12/20 02:00:53;;;;;;;7.30;5.60;;;11.00;99.90;;;;;;5050887;28;20428;-73
2020/12/20 02:03:19;;;;;;;7.47;5.63;;;11.00;99.90;;;;;;5039970;28;20414;-73
2020/12/20 02:05:44;;;;;;;6.17;5.50;;;11.00;99.90;;;;;;5056331;28;20464;-73
2020/12/20 02:08:11;;;;;;;9.80;5.67;;;11.00;99.90;;;;;;5049797;28;20428;-73
2020/12/20 02:10:37;;;;;;;6.43;5.83;;;11.00;99.90;;;;;;5056897;28;20335;-73
2020/12/20 02:13:03;;;;;;;5.50;5.00;;;11.00;99.90;;;;;;5048984;28;20459;-73
2020/12/20 02:15:28;;;;;;;6.47;5.60;;;11.00;99.90;;;;;;5036322;28;20253;-72
2020/12/20 02:17:54;;;;;;;6.37;5.77;;;11.00;99.90;;;;;;5044665;28;20911;-73
2020/12/20 02:20:19;;;;;;;6.73;5.53;;;10.90;99.90;;;;;;5045859;28;20174;-72
2020/12/20 02:22:45;;;;;;;6.20;5.60;;;11.00;99.90;;;;;;5045345;28;20188;-72
2020/12/20 02:25:10;;;;;;;6.00;5.40;;;11.00;99.90;;;;;;5048491;28;20210;-73
2020/12/20 02:27:36;;;;;;;6.97;5.93;;;11.00;99.90;;;;;;5042653;28;20202;-71
2020/12/20 02:30:03;;;;;;;6.07;5.40;;;11.00;99.90;;;;;;5052811;28;20651;-72
2020/12/20 02:32:28;;;;;;;6.40;5.30;;;11.00;99.90;;;;;;5046036;28;20178;-72
2020/12/20 02:34:54;;;;;;;6.17;4.90;;;11.00;99.90;;;;;;5052563;28;20441;-72
2020/12/20 02:37:19;;;;;;;6.73;5.50;;;11.00;99.90;;;;;;5053802;28;20650;-72
2020/12/20 02:39:45;;;;;;;11.30;5.90;;;11.00;99.90;;;;;;5036806;28;20191;-71
2020/12/20 02:42:10;;;;;;;5.73;5.13;;;11.00;99.90;;;;;;5049063;28;20175;-72
2020/12/20 02:44:36;;;;;;;6.67;5.40;;;11.00;99.90;;;;;;5041789;28;20183;-72
2020/12/20 02:47:02;;;;;;;9.43;5.93;;;11.00;99.90;;;;;;5034162;28;20197;-73
2020/12/20 02:49:27;;;;;;;6.53;6.03;;;11.00;99.90;;;;;;5040087;28;20185;-73
2020/12/20 02:51:53;;;;;;;6.17;5.20;;;10.90;99.90;;;;;;5053206;28;20182;-72
2020/12/20 02:54:18;;;;;;;6.63;5.50;;;10.90;99.90;;;;;;5048646;28;20349;-73
2020/12/20 02:56:44;;;;;;;6.50;5.80;;;10.90;99.90;;;;;;5041708;28;20215;-72
2020/12/20 02:59:10;;;;;;;9.50;6.57;;;10.90;99.90;;;;;;5033949;28;20576;-73
2020/12/20 03:01:35;;;;;;;6.43;5.83;;;10.80;99.90;;;;;;5041130;28;20428;-72
2020/12/20 03:04:01;;;;;;;6.67;6.00;;;10.80;99.90;;;;;;5034797;28;20536;-72
2020/12/20 03:06:27;;;;;;;7.37;6.00;;;10.80;99.90;;;;;;5047483;28;20213;-72
2020/12/20 03:08:52;;;;;;;6.10;5.47;;;10.80;99.90;;;;;;5051643;28;20186;-72
2020/12/20 03:11:18;;;;;;;6.90;5.43;;;10.80;99.90;;;;;;5033086;28;20185;-72
2020/12/20 03:13:43;;;;;;;6.40;5.80;;;10.70;99.90;;;;;;5033229;28;20187;-73
2020/12/20 03:16:09;;;;;;;6.60;6.00;;;10.80;99.90;;;;;;5048609;28;20272;-72
2020/12/20 03:18:34;;;;;;;7.43;6.43;;;10.80;99.90;;;;;;5047080;28;20179;-72
2020/12/20 03:20:59;;;;;;;6.40;5.90;;;10.70;99.90;;;;;;5033349;28;20179;-73
2020/12/20 03:23:25;;;;;;;7.30;6.60;;;10.70;99.90;;;;;;5037671;28;20190;-72
2020/12/20 03:25:50;;;;;;;6.70;6.20;;;10.70;99.90;;;;;;5037089;28;20206;-72
2020/12/20 03:28:16;;;;;;;10.30;5.60;;;10.70;99.90;;;;;;5052394;28;20181;-73
2020/12/20 03:30:42;;;;;;;12.93;6.80;;;10.70;99.90;;;;;;5052577;28;20569;-73
2020/12/20 03:33:07;;;;;;;7.47;6.60;;;10.70;99.90;;;;;;5053564;28;20193;-73
2020/12/20 03:35:33;;;;;;;7.50;6.33;;;10.70;99.90;;;;;;5047324;28;20210;-73
2020/12/20 03:37:58;;;;;;;6.50;5.80;;;10.80;99.90;;;;;;5041433;28;20179;-72
2020/12/20 03:40:24;;;;;;;7.80;6.87;;;10.80;99.90;;;;;;5041417;28;20227;-72
2020/12/20 03:42:51;;;;;;;6.90;6.20;;;10.80;99.90;;;;;;5031422;28;20175;-72
2020/12/20 03:45:18;;;;;;;8.70;6.30;;;10.80;99.90;;;;;;5040816;28;20454;-73
2020/12/20 03:47:44;;;;;;;8.37;5.73;;;10.70;99.90;;;;;;5041492;28;20457;-72
2020/12/20 03:50:10;;;;;;;7.30;6.00;;;10.70;99.90;;;;;;5041089;28;20425;-73
2020/12/20 03:52:35;;;;;;;6.23;5.53;;;10.70;99.90;;;;;;5045532;28;20487;-73
2020/12/20 03:55:01;;;;;;;7.40;6.63;;;10.70;99.90;;;;;;5046017;28;20186;-73
2020/12/20 03:57:27;;;;;;;7.63;5.93;;;10.70;99.90;;;;;;5044571;28;20197;-71
2020/12/20 03:59:53;;;;;;;6.07;5.50;;;10.70;99.90;;;;;;5045610;28;20475;-73
2020/12/20 04:02:18;;;;;;;9.30;6.20;;;10.70;99.90;;;;;;5039833;28;20189;-73
2020/12/20 04:04:44;;;;;;;6.23;5.63;;;10.70;99.90;;;;;;5040040;28;20178;-72
2020/12/20 04:07:09;;;;;;;6.47;5.87;;;10.70;99.90;;;;;;5040922;28;20566;-73
2020/12/20 04:09:35;;;;;;;8.20;5.77;;;10.70;99.90;;;;;;5036907;28;20182;-73
2020/12/20 04:12:02;;;;;;;6.80;6.17;;;10.70;99.90;;;;;;5037478;28;20189;-73
2020/12/20 04:14:28;;;;;;;6.83;6.13;;;10.70;99.90;;;;;;5035730;28;20316;-72
2020/12/20 04:16:53;;;;;;;6.37;5.77;;;10.70;99.90;;;;;;5038753;28;20538;-73
2020/12/20 04:19:19;;;;;;;6.50;6.00;;;10.70;99.90;;;;;;5052067;28;20182;-73
2020/12/20 04:21:45;;;;;;;6.50;5.90;;;10.60;99.90;;;;;;5038930;28;20171;-72
2020/12/20 04:24:10;;;;;;;6.47;5.80;;;10.60;99.90;;;;;;5049630;28;20270;-71
2020/12/20 04:26:36;;;;;;;5.60;5.10;;;10.70;99.90;;;;;;5046949;28;20594;-72
2020/12/20 04:29:01;;;;;;;6.57;5.90;;;10.70;99.90;;;;;;5041088;28;20687;-71
2020/12/20 04:31:27;;;;;;;9.20;5.90;;;10.70;99.90;;;;;;5033189;28;20658;-72
2020/12/20 04:33:52;;;;;;;7.63;6.10;;;10.70;99.90;;;;;;5045364;28;20189;-72
2020/12/20 04:36:18;;;;;;;6.50;5.90;;;10.70;99.90;;;;;;5055146;28;20210;-72
2020/12/20 04:38:44;;;;;;;7.13;6.50;;;10.70;99.90;;;;;;5036610;28;20265;-72
2020/12/20 04:41:10;;;;;;;6.23;5.37;;;10.70;99.90;;;;;;5044847;28;20460;-71
2020/12/20 04:43:37;;;;;;;8.00;6.87;;;10.70;99.90;;;;;;5046053;28;20626;-71
2020/12/20 04:46:04;;;;;;;7.77;5.60;;;10.60;99.90;;;;;;5054817;28;20506;-71
2020/12/20 04:48:38;;;;;;;6.93;6.07;;;10.60;99.90;;;;;;5046640;28;20801;-72
2020/12/20 04:51:07;;;;;;;8.30;5.90;;;10.60;99.90;;;;;;5036486;28;20452;-73
2020/12/20 04:53:34;;;;;;;9.00;6.40;;;10.60;99.90;;;;;;5036394;28;20480;-73
2020/12/20 04:56:11;;;;;;;6.27;5.67;;;10.60;99.90;;;;;;5038409;28;20476;-73
2020/12/20 04:58:38;;;;;;;6.97;6.10;;;10.60;99.90;;;;;;5045801;28;20424;-73
2020/12/20 05:01:05;;;;;;;7.77;6.80;;;10.50;99.90;;;;;;5055245;28;20417;-73
2020/12/20 05:03:31;;;;;;;8.10;7.03;;;10.50;99.90;;;;;;5055207;28;20470;-72
2020/12/20 05:05:57;;;;;;;7.10;5.97;;;10.50;99.90;;;;;;5035809;28;20441;-73
2020/12/20 05:08:24;;;;;;;8.80;7.03;;;10.50;99.90;;;;;;5051063;28;20444;-73
2020/12/20 05:10:51;;;;;;;9.27;6.90;;;10.50;99.90;;;;;;5047364;28;20300;-73
2020/12/20 05:13:17;;;;;;;7.40;6.40;;;10.50;99.90;;;;;;5049442;28;20459;-73
2020/12/20 05:15:43;;;;;;;8.03;7.23;;;10.40;99.90;;;;;;5047591;28;20465;-73
2020/12/20 05:18:15;;;;;;;8.60;6.87;;;10.50;99.90;;;;;;5042656;28;20414;-73
2020/12/20 05:20:43;;;;;;;7.00;6.30;;;10.50;99.90;;;;;;5044735;28;20420;-73
2020/12/20 05:23:10;;;;;;;10.63;7.40;;;10.50;99.90;;;;;;5048941;28;20548;-71
2020/12/20 05:25:37;;;;;;;9.43;7.20;;;10.50;99.90;;;;;;5047877;28;20452;-73
2020/12/20 05:28:21;;;;;;;9.63;7.33;;;10.50;99.90;;;;;;5044434;28;20974;-73
2020/12/20 05:30:47;;;;;;;7.07;6.40;;;10.50;99.90;;;;;;5058927;28;20425;-73
2020/12/20 05:33:26;;;;;;;7.80;7.00;;;10.50;99.90;;;;;;5046278;28;20422;-71
2020/12/20 05:36:06;;;;;;;7.30;6.60;;;10.50;99.90;;;;;;5046165;28;20464;-73
2020/12/20 05:38:36;;;;;;;7.80;7.10;;;10.50;99.90;;;;;;5056736;28;20772;-73
2020/12/20 05:41:02;;;;;;;7.77;7.00;;;10.50;99.90;;;;;;5051845;28;20460;-73
2020/12/20 05:43:29;;;;;;;9.23;7.20;;;10.50;99.90;;;;;;5047638;28;20965;-71
2020/12/20 05:45:57;;;;;;;9.43;6.80;;;10.50;99.90;;;;;;5050767;28;20441;-72
2020/12/20 05:48:25;;;;;;;8.80;7.90;;;10.50;99.90;;;;;;5042938;28;20432;-73
2020/12/20 05:51:06;;;;;;;7.73;6.93;;;10.40;99.90;;;;;;5050450;28;20455;-72
2020/12/20 05:53:34;;;;;;;6.83;6.27;;;10.40;99.90;;;;;;5042404;28;20771;-72
2020/12/20 05:56:01;;;;;;;8.50;6.53;;;10.50;99.90;;;;;;5045823;28;20465;-72
2020/12/20 05:58:34;;;;;;;7.80;7.00;;;10.40;99.90;;;;;;5048380;28;20765;-72
2020/12/20 06:01:01;;;;;;;8.20;7.40;;;10.40;99.90;;;;;;5043784;28;20424;-73
2020/12/20 06:03:28;;;;;;;10.03;7.80;;;10.40;99.90;;;;;;5054428;28;20906;-71
2020/12/20 06:05:53;;;;;;;9.50;8.60;;;10.40;99.90;;;;;;5036457;28;20468;-72
2020/12/20 06:08:22;;;;;;;9.37;8.17;;;10.40;99.90;;;;;;5042762;28;20421;-71
2020/12/20 06:10:50;;;;;;;8.20;7.40;;;10.40;99.90;;;;;;5035410;28;20444;-73
2020/12/20 06:13:18;;;;;;;9.10;8.20;;;10.40;99.90;;;;;;5054199;28;20451;-72
2020/12/20 06:15:45;;;;;;;8.70;7.77;;;10.40;99.90;;;;;;5041865;28;20505;-71
2020/12/20 06:18:14;;;;;;;8.90;7.97;;;10.40;99.90;;;;;;5035074;28;20418;-71
2020/12/20 06:20:51;;;;;;;9.20;8.30;;;10.30;99.90;;;;;;5035027;28;20412;-73
2020/12/20 06:23:19;;;;;;;8.67;7.80;;;10.30;99.90;;;;;;5046649;28;20412;-72
2020/12/20 06:25:46;;;;;;;9.40;8.40;;;10.30;99.90;;;;;;5052757;28;20497;-74
2020/12/20 06:28:22;;;;;;;10.17;7.47;;;10.30;99.90;;;;;;5051023;28;20427;-73
2020/12/20 06:30:48;;;;;;;11.50;8.83;;;10.30;99.90;;;;;;5042657;28;20440;-73
2020/12/20 06:33:45;;;;;;;11.40;7.67;;;10.30;99.90;;;;;;5037250;28;20424;-73
2020/12/20 06:36:14;;;;;;;9.10;8.17;;;10.40;99.90;;;;;;5036954;28;20467;-73
2020/12/20 06:38:40;;;;;;;8.83;7.90;;;10.40;99.90;;;;;;5047387;28;20434;-72
2020/12/20 06:41:06;;;;;;;10.57;9.17;;;10.40;99.90;;;;;;5050109;28;20785;-73
2020/12/20 06:43:36;;;;;;;9.90;8.30;;;10.40;99.90;;;;;;5039568;28;20416;-73
2020/12/20 06:46:06;;;;;;;8.80;7.90;;;10.30;99.90;;;;;;5053616;28;20546;-73
2020/12/20 06:48:39;;;;;;;8.60;7.53;;;10.30;99.90;;;;;;5046214;28;20444;-73
2020/12/20 06:51:08;;;;;;;10.70;9.03;;;10.30;99.90;;;;;;5053163;28;20458;-73
2020/12/20 06:54:03;;;;;;;11.90;8.67;;;10.30;99.90;;;;;;5054164;28;20416;-72
2020/12/20 06:56:29;;;;;;;9.30;8.40;;;10.30;99.90;;;;;;5008071;28;20466;-73
2020/12/20 06:58:54;;;;;;;10.40;8.40;;;10.30;99.90;;;;;;5014543;28;20429;-73
2020/12/20 07:01:39;;;;;;;11.90;8.60;;;10.30;99.90;;;;;;5013523;28;20184;-72
2020/12/20 07:04:14;;;;;;;12.47;8.53;;;10.30;99.90;;;;;;4997418;28;20191;-73
2020/12/20 07:06:39;;;;;;;9.83;8.77;;;10.30;99.90;;;;;;5013491;28;20539;-73
2020/12/20 07:09:09;;;;;;;9.03;8.23;;;10.40;99.90;;;;;;5015584;28;20930;-73
2020/12/20 07:11:49;;;;;;;9.90;7.87;;;10.40;99.90;;;;;;5015280;28;20183;-73
2020/12/20 07:14:23;;;;;;;9.13;8.23;;;10.40;99.90;;;;;;5010677;28;20469;-73
2020/12/20 07:16:49;;;;;;;9.37;8.37;;;10.40;99.90;;;;;;5011546;28;21034;-73
2020/12/20 07:19:25;;;;;;;8.37;7.60;;;10.30;99.90;;;;;;5011372;28;20434;-73
2020/12/20 07:21:53;;;;;;;8.70;7.90;;;10.30;99.90;;;;;;5010993;28;20422;-73
2020/12/20 07:24:20;;;;;;;9.13;8.23;;;10.30;99.90;;;;;;5011177;28;20504;-72
2020/12/20 07:26:48;;;;;;;10.37;8.00;;;10.30;99.90;;;;;;5010783;28;20446;-73
2020/12/20 07:29:14;;;;;;;10.80;8.27;;;10.30;99.90;;;;;;4993522;28;20810;-73
2020/12/20 07:31:40;;;;;;;10.10;8.33;;;10.30;99.90;;;;;;5010936;28;21043;-72
2020/12/20 07:34:07;;;;;;;9.20;8.20;;;10.30;99.90;;;;;;5040992;28;20535;-73
2020/12/20 07:36:34;;;;;;;12.60;8.23;;;10.30;99.90;;;;;;5041795;28;20222;-73
2020/12/20 07:39:00;;;;;;;10.93;8.43;;;10.30;99.90;;;;;;5047992;28;20481;-73
2020/12/20 07:41:26;;;;;;;9.37;8.47;;;10.20;99.90;;;;;;5050548;28;20429;-73
2020/12/20 07:43:52;;;;;;;9.80;8.83;;;10.20;99.90;;;;;;5041283;28;20764;-73
2020/12/20 07:46:20;;;;;;;11.63;8.90;;;10.20;99.90;;;;;;5049269;28;20202;-73
2020/12/20 07:48:46;;;;;;;10.70;9.30;;;10.20;99.90;;;;;;5046235;28;20520;-74
2020/12/20 07:51:11;;;;;;;9.77;8.00;;;10.20;99.90;;;;;;5036968;28;20979;-72
2020/12/20 07:53:51;;;;;;;9.33;8.00;;;10.20;99.90;;;;;;5051807;28;20441;-72
2020/12/20 07:56:26;;;;;;;15.17;8.70;;;10.20;99.90;;;;;;5052251;28;20271;-73
2020/12/20 07:58:54;;;;;;;9.20;8.27;;;10.20;99.90;;;;;;5051785;28;20431;-73
2020/12/20 08:01:20;;;;;;;9.57;7.90;;;10.20;99.90;;;;;;5043499;28;20448;-73
2020/12/20 08:03:46;;;;;;;8.73;7.83;;;10.20;99.90;;;;;;5044970;28;20451;-73
2020/12/20 08:06:13;;;;;;;10.00;9.00;;;10.20;99.90;;;;;;5052277;28;20656;-72
2020/12/20 08:08:39;;;;;;;8.57;7.60;;;10.20;99.90;;;;;;5048983;28;20429;-72
2020/12/20 08:11:18;;;;;;;8.43;7.63;;;10.20;99.90;;;;;;5042413;28;20420;-73
2020/12/20 08:13:55;;;;;;;10.97;8.43;;;10.20;99.90;;;;;;5055476;28;20431;-73
2020/12/20 08:16:22;;;;;;;8.80;7.90;;;10.20;99.90;;;;;;5056169;28;20525;-73
2020/12/20 08:18:53;;;;;;;12.33;8.97;;;10.20;99.90;;;;;;5037662;28;20417;-72
2020/12/20 08:21:35;;;;;;;9.13;8.30;;;10.20;99.90;;;;;;5044459;28;20422;-73
2020/12/20 08:24:01;;;;;;;8.27;7.47;;;10.30;99.90;;;;;;5056387;28;20530;-73
2020/12/20 08:26:31;;;;;;;9.83;8.23;;;10.30;99.90;;;;;;5038151;28;20475;-74
2020/12/20 08:28:58;;;;;;;12.30;8.00;;;10.30;99.90;;;;;;5048054;28;20198;-73
2020/12/20 08:31:30;;;;;;;8.87;7.50;;;10.30;99.90;;;;;;5036740;28;20432;-73
2020/12/20 08:33:56;;;;;;;9.80;8.80;;;10.30;99.90;;;;;;5044163;28;20524;-73
2020/12/20 08:36:22;;;;;;;9.20;8.17;;;10.30;99.90;;;;;;5051665;28;20509;-74
2020/12/20 08:38:49;;;;;;;9.97;8.90;;;10.30;99.90;;;;;;5047361;28;20986;-76
2020/12/20 08:41:29;;;;;;;9.40;8.50;;;10.40;99.90;;;;;;5045181;28;21226;-70
2020/12/20 08:44:05;;;;;;;11.37;9.30;;;10.40;99.90;;;;;;5042970;28;20432;-70
2020/12/20 08:46:36;;;;;;;9.17;8.27;;;10.40;99.90;;;;;;5051726;28;20537;-70
2020/12/20 08:49:19;;;;;;;9.50;8.50;;;10.40;99.90;;;;;;5044818;28;20853;-69
2020/12/20 08:51:45;;;;;;;10.60;9.30;;;10.40;99.90;;;;;;5041011;28;20495;-70
2020/12/20 08:54:11;;;;;;;10.50;7.97;;;10.40;99.90;;;;;;5055376;28;20424;-70
2020/12/20 08:57:00;;;;;;;11.97;8.60;;;10.40;99.90;;;;;;5056127;28;20459;-69
2020/12/20 08:59:27;;;;;;;10.97;8.30;;;10.40;99.90;;;;;;5057661;28;20486;-70
2020/12/20 09:01:53;;;;;;;10.10;8.23;;;10.40;99.90;;;;;;5047166;28;20413;-70
2020/12/20 09:04:18;;;;;;;8.80;7.90;;;10.40;99.90;;;;;;5037278;28;20447;-70
2020/12/20 09:07:06;;;;;;;9.10;7.63;;;10.40;99.90;;;;;;5055943;28;20269;-70
2020/12/20 09:09:33;;;;;;;12.80;9.03;;;10.50;99.90;;;;;;5042414;28;20179;-70
2020/12/20 09:12:12;;;;;;;9.07;8.23;;;10.50;99.90;;;;;;5042398;28;20436;-69
2020/12/20 09:14:38;;;;;;;9.07;7.93;;;10.50;99.90;;;;;;5039567;28;20440;-70
2020/12/20 09:17:04;;;;;;;9.37;8.37;;;10.50;99.90;;;;;;5042449;28;20461;-70
2020/12/20 09:19:30;;;;;;;10.00;8.70;;;10.60;99.90;;;;;;5035933;28;20613;-71
2020/12/20 09:21:55;;;;;;;8.07;7.27;;;10.60;99.90;;;;;;5051613;28;20428;-70
2020/12/20 09:24:21;;;;;;;11.43;7.20;;;10.60;99.90;;;;;;5035938;28;20183;-70
2020/12/20 09:26:59;;;;;;;8.53;7.63;;;10.60;99.90;;;;;;5035518;28;20199;-69
2020/12/20 09:29:25;;;;;;;8.20;7.40;;;10.70;99.90;;;;;;5044603;28;20204;-70
2020/12/20 09:31:53;;;;;;;10.53;7.90;;;10.70;99.90;;;;;;5043747;28;20437;-71
2020/12/20 09:34:31;;;;;;;15.13;8.10;;;10.70;99.90;;;;;;5035537;28;20195;-70
2020/12/20 09:37:05;;;;;;;9.90;7.80;;;10.70;99.90;;;;;;5042780;28;20468;-70
2020/12/20 09:39:31;;;;;;;7.93;7.17;;;10.80;99.90;;;;;;5041608;28;20448;-70
2020/12/20 09:41:56;;;;;;;7.77;6.97;;;10.80;99.90;;;;;;5045553;28;20456;-72
2020/12/20 09:44:22;;;;;;;7.83;7.00;;;10.80;99.90;;;;;;5035877;28;20181;-70
2020/12/20 09:46:48;;;;;;;10.73;7.57;;;10.90;99.90;;;;;;5051581;28;20279;-70
2020/12/20 09:49:14;;;;;;;7.33;6.63;;;10.90;99.90;;;;;;5051796;28;20512;-70
2020/12/20 09:51:40;;;;;;;9.33;7.17;;;11.00;99.90;;;;;;5070140;28;20860;-71
2020/12/20 09:54:06;;;;;;;8.90;6.90;;;11.00;99.90;;;;;;5043673;28;20822;-71
2020/12/20 09:56:32;;;;;;;7.90;6.97;;;11.00;99.90;;;;;;5033813;28;20207;-73
2020/12/20 09:58:57;;;;;;;9.67;8.77;;;11.00;99.90;;;;;;5042710;28;20844;-70
2020/12/20 10:01:25;;;;;;;7.60;6.90;;;11.10;99.90;;;;;;5046771;28;20652;-69
2020/12/20 10:03:51;;;;;;;10.73;8.63;;;11.10;99.90;;;;;;5016950;28;20190;-69
2020/12/20 10:06:18;;;;;;;9.40;7.47;;;11.20;99.90;;;;;;5041369;28;20548;-70
2020/12/20 10:08:44;;;;;;;7.47;6.30;;;11.20;99.90;;;;;;5047156;28;20531;-71
2020/12/20 10:11:10;;;;;;;10.10;7.00;;;11.20;99.90;;;;;;5051110;28;20441;-70
2020/12/20 10:13:37;;;;;;;8.87;7.33;;;11.20;99.90;;;;;;5048732;28;20432;-71
2020/12/20 10:16:03;;;;;;;7.40;6.70;;;11.20;99.90;;;;;;5052973;28;20467;-70
2020/12/20 10:18:29;;;;;;;7.57;6.73;;;11.20;99.90;;;;;;5053874;28;20805;-70
2020/12/20 10:20:55;;;;;;;8.37;7.23;;;11.20;99.90;;;;;;5049537;28;20504;-70
2020/12/20 10:23:20;;;;;;;8.53;7.33;;;11.20;99.90;;;;;;5045806;28;20297;-70
2020/12/20 10:25:46;;;;;;;8.33;7.17;;;11.20;99.90;;;;;;5045965;28;20566;-71
2020/12/20 10:28:11;;;;;;;7.10;6.40;;;11.20;99.90;;;;;;5046357;28;20653;-70
2020/12/20 10:30:37;;;;;;;7.90;6.90;;;11.20;99.90;;;;;;5047756;28;20193;-71
2020/12/20 10:33:03;;;;;;;7.73;6.63;;;11.30;99.90;;;;;;5053111;28;20178;-71
2020/12/20 10:35:29;;;;;;;8.07;7.10;;;11.30;99.90;;;;;;5051559;28;20575;-71
2020/12/20 10:37:58;;;;;;;8.90;6.20;;;11.30;99.90;;;;;;5053198;28;20248;-70
2020/12/20 10:40:25;;;;;;;8.23;6.80;;;11.50;99.90;;;;;;5047366;28;20166;-70
2020/12/20 10:42:51;;;;;;;8.53;6.53;;;11.50;99.90;;;;;;5046730;28;20923;-71
2020/12/20 10:45:17;;;;;;;8.47;7.10;;;11.50;99.90;;;;;;5052999;28;20445;-71
2020/12/20 10:47:43;;;;;;;6.70;5.83;;;11.50;99.90;;;;;;5050119;28;20495;-71
2020/12/20 10:50:10;;;;;;;7.53;6.13;;;11.50;99.90;;;;;;5053323;28;20425;-71
2020/12/20 10:52:36;;;;;;;9.43;6.70;;;11.50;99.90;;;;;;5046143;28;20414;-71
2020/12/20 10:55:03;;;;;;;9.70;6.40;;;11.50;99.90;;;;;;5045806;28;20466;-69
2020/12/20 10:57:29;;;;;;;7.30;6.60;;;11.50;99.90;;;;;;5042042;28;20633;-70
2020/12/20 10:59:54;;;;;;;7.60;6.77;;;11.60;99.90;;;;;;5052254;28;20484;-70
2020/12/20 11:02:20;;;;;;;8.40;6.43;;;11.60;99.90;;;;;;5054123;28;20253;-70
2020/12/20 11:04:46;;;;;;;7.13;6.43;;;11.60;99.90;;;;;;5053624;28;20181;-70
2020/12/20 11:07:12;;;;;;;10.23;6.10;;;11.60;99.90;;;;;;5048171;28;20228;-71
2020/12/20 11:09:38;;;;;;;9.37;6.90;;;11.60;99.90;;;;;;5049103;28;20445;-70
2020/12/20 11:12:05;;;;;;;8.03;6.90;;;11.60;99.90;;;;;;5052747;28;20763;-72
2020/12/20 11:14:32;;;;;;;8.73;6.07;;;11.60;99.90;;;;;;5050323;28;20551;-71
2020/12/20 11:16:59;;;;;;;8.73;5.80;;;11.70;99.90;;;;;;5052091;28;20510;-71
2020/12/20 11:19:24;;;;;;;7.33;6.67;;;11.70;99.90;;;;;;5052224;28;20488;-71
2020/12/20 11:21:52;;;;;;;10.20;6.50;;;11.70;99.90;;;;;;5050168;28;20528;-71
2020/12/20 11:24:19;;;;;;;7.70;6.27;;;11.70;99.90;;;;;;5052061;28;20158;-71
2020/12/20 11:26:45;;;;;;;6.70;6.00;;;11.70;99.90;;;;;;5050277;28;20456;-71
2020/12/20 11:29:12;;;;;;;6.40;5.80;;;11.80;99.90;;;;;;5048578;28;20429;-72
2020/12/20 11:31:38;;;;;;;6.37;5.77;;;11.80;99.90;;;;;;5043300;28;20532;-71
2020/12/20 11:34:03;;;;;;;5.97;5.37;;;11.70;99.90;;;;;;5046437;28;20459;-72
2020/12/20 11:36:29;;;;;;;5.70;5.10;;;11.70;99.90;;;;;;5048521;28;20193;-71
2020/12/20 11:38:54;;;;;;;6.80;6.00;;;11.70;99.90;;;;;;5050632;28;20188;-72
2020/12/20 11:41:25;;;;;;;7.20;6.03;;;11.70;99.90;;;;;;5045051;28;20174;-70
2020/12/20 11:43:52;;;;;;;7.73;5.10;;;11.80;99.90;;;;;;5041433;28;20576;-72
2020/12/20 11:46:18;;;;;;;5.90;5.37;;;11.80;99.90;;;;;;5052424;28;20468;-72
2020/12/20 11:48:44;;;;;;;6.17;4.80;;;11.80;99.90;;;;;;5052621;28;20475;-72
2020/12/20 11:51:11;;;;;;;6.63;4.93;;;11.80;99.90;;;;;;5051573;28;20911;-71
2020/12/20 11:53:37;;;;;;;7.77;5.00;;;11.80;99.90;;;;;;5052112;28;20182;-71
2020/12/20 11:56:10;;;;;;;5.70;4.80;;;11.80;99.90;;;;;;5052720;28;20456;-71
2020/12/20 11:58:37;;;;;;;5.87;5.10;;;11.80;99.90;;;;;;5043455;28;20255;-71
2020/12/20 12:01:05;;;;;;;10.47;5.60;;;11.90;99.90;;;;;;5044478;28;20494;-71
2020/12/20 12:03:31;;;;;;;8.47;5.27;;;11.90;99.90;;;;;;5044066;28;20499;-70
2020/12/20 12:05:57;;;;;;;7.33;5.30;;;11.90;99.90;;;;;;5051099;28;20528;-72
2020/12/20 12:08:23;;;;;;;6.50;5.30;;;11.90;99.90;;;;;;5043885;28;20413;-72
2020/12/20 12:10:49;;;;;;;8.20;4.90;;;11.90;99.90;;;;;;5049502;28;20795;-72
2020/12/20 12:13:16;;;;;;;4.87;4.33;;;11.90;99.90;;;;;;5046729;28;20556;-72
2020/12/20 12:15:43;;;;;;;7.50;6.00;;;11.90;99.90;;;;;;5051975;28;20459;-72
2020/12/20 12:18:09;;;;;;;8.77;5.80;;;11.90;99.90;;;;;;5052203;28;20474;-72
2020/12/20 12:20:35;;;;;;;7.20;4.60;;;12.00;99.90;;;;;;5051338;28;20610;-72
2020/12/20 12:23:00;;;;;;;7.10;5.10;;;12.00;99.90;;;;;;5045132;28;20681;-72
2020/12/20 12:25:27;;;;;;;6.40;4.70;;;12.00;99.90;;;;;;5048195;28;20185;-72
2020/12/20 12:27:52;;;;;;;8.87;5.03;;;12.00;99.90;;;;;;5052034;28;20421;-72
2020/12/20 12:30:18;;;;;;;6.03;4.87;;;12.00;99.90;;;;;;5050675;28;20753;-71
2020/12/20 12:32:43;;;;;;;5.40;4.80;;;12.00;99.90;;;;;;5049704;28;20179;-70
2020/12/20 12:35:09;;;;;;;4.87;4.40;;;12.00;99.90;;;;;;5042423;28;20183;-70
2020/12/20 12:37:35;;;;;;;6.53;5.10;;;12.00;99.90;;;;;;5044344;28;20210;-73
2020/12/20 12:40:01;;;;;;;5.33;4.47;;;12.00;99.90;;;;;;5049018;28;20471;-71
2020/12/20 12:42:26;;;;;;;6.10;5.30;;;12.00;99.90;;;;;;5041042;28;20249;-71
2020/12/20 12:44:52;;;;;;;7.53;5.40;;;12.00;99.90;;;;;;5043759;28;20417;-71
2020/12/20 12:47:18;;;;;;;8.07;5.33;;;12.00;99.90;;;;;;5038136;28;20182;-71